Time;durP1;ratioP1;P1;durP2;ratioP2;P2;SDS_P1;SDS_P2;PMS_P1;PMS_P2;Temp;Humidity;BMP_temperature;BMP_pressure;BME280_temperature;BME280_humidity;BME280_pressure;Samples;Min_cycle;Max_cycle;Signal;HPM_P1;HPM_P2
2022/08/10 00:01:42;;;;;;;;;;;;;;;;;;5016311;28;19917;-26
2022/08/10 00:04:08;;;;;;;;;;;;;;;;;;5016931;28;19929;-26
2022/08/10 00:06:34;;;;;;;;;;;;;;;;;;5016251;28;19909;-26
2022/08/10 00:09:00;;;;;;;;;;;;;;;;;;5016017;28;19957;-26
2022/08/10 00:11:26;;;;;;;;;;;;;;;;;;5016171;28;19913;-26
2022/08/10 00:13:52;;;;;;;;;;;;;;;;;;5016106;28;19939;-26
2022/08/10 00:16:18;;;;;;;;;;;;;;;;;;5016034;28;20004;-26
2022/08/10 00:18:44;;;;;;;;;;;;;;;;;;5016069;28;19916;-26
2022/08/10 00:21:10;;;;;;;;;;;;;;;;;;5016024;28;19917;-26
2022/08/10 00:23:36;;;;;;;;;;;;;;;;;;5016056;28;20349;-26
2022/08/10 00:26:02;;;;;;;;;;;;;;;;;;5016205;28;19916;-26
2022/08/10 00:28:28;;;;;;;;;;;;;;;;;;5016114;28;20411;-26
2022/08/10 00:30:54;;;;;;;;;;;;;;;;;;5016127;28;19918;-26
2022/08/10 00:33:20;;;;;;;;;;;;;;;;;;5016029;28;19913;-27
2022/08/10 00:35:45;;;;;;;;;;;;;;;;;;5015763;28;20020;-27
2022/08/10 00:38:12;;;;;;;;;;;;;;;;;;5016021;28;20391;-27
2022/08/10 00:40:38;;;;;;;;;;;;;;;;;;5015662;28;19921;-27
2022/08/10 00:43:04;;;;;;;;;;;;;;;;;;5015506;28;19918;-26
2022/08/10 00:45:29;;;;;;;;;;;;;;;;;;5015595;28;19928;-27
2022/08/10 00:47:55;;;;;;;;;;;;;;;;;;5015631;28;19910;-27
2022/08/10 00:50:21;;;;;;;;;;;;;;;;;;5015524;28;20108;-27
2022/08/10 00:52:47;;;;;;;;;;;;;;;;;;5015518;28;19909;-27
2022/08/10 00:55:13;;;;;;;;;;;;;;;;;;5014572;28;20344;-27
2022/08/10 00:57:39;;;;;;;;;;;;;;;;;;5016058;28;19920;-27
2022/08/10 01:00:06;;;;;;;;;;;;;;;;;;5016027;28;19913;-27
2022/08/10 01:02:32;;;;;;;;;;;;;;;;;;5015862;28;19913;-27
2022/08/10 01:04:58;;;;;;;;;;;;;;;;;;5015956;28;19913;-27
2022/08/10 01:07:24;;;;;;;;;;;;;;;;;;5015133;28;20344;-27
2022/08/10 01:09:50;;;;;;;;;;;;;;;;;;5018719;28;19918;-27
2022/08/10 01:12:16;;;;;;;;;;;;;;;;;;5022622;28;19910;-27
2022/08/10 01:14:42;;;;;;;;;;;;;;;;;;5022381;28;19921;-27
2022/08/10 01:17:08;;;;;;;;;;;;;;;;;;5022088;28;19941;-27
2022/08/10 01:19:34;;;;;;;;;;;;;;;;;;5021769;28;20411;-27
2022/08/10 01:22:00;;;;;;;;;;;;;;;;;;5021716;28;20011;-27
2022/08/10 01:24:26;;;;;;;;;;;;;;;;;;5022241;28;19921;-27
2022/08/10 01:26:52;;;;;;;;;;;;;;;;;;5022020;28;19910;-27
2022/08/10 01:29:18;;;;;;;;;;;;;;;;;;5022025;28;19917;-27
2022/08/10 01:31:44;;;;;;;;;;;;;;;;;;5021640;28;19909;-27
2022/08/10 01:34:10;;;;;;;;;;;;;;;;;;5022232;28;20004;-27
2022/08/10 01:36:36;;;;;;;;;;;;;;;;;;5021641;28;20004;-26
2022/08/10 01:39:02;;;;;;;;;;;;;;;;;;5021668;28;20305;-27
2022/08/10 01:41:28;;;;;;;;;;;;;;;;;;5021590;28;19914;-27
2022/08/10 01:43:54;;;;;;;;;;;;;;;;;;5021443;28;19940;-27
2022/08/10 01:46:21;;;;;;;;;;;;;;;;;;5022146;28;19914;-27
2022/08/10 01:48:47;;;;;;;;;;;;;;;;;;5021807;28;20253;-27
2022/08/10 01:51:13;;;;;;;;;;;;;;;;;;5021573;28;19909;-27
2022/08/10 01:53:39;;;;;;;;;;;;;;;;;;5021539;28;20367;-26
2022/08/10 01:56:05;;;;;;;;;;;;;;;;;;5021434;28;19921;-26
2022/08/10 01:58:31;;;;;;;;;;;;;;;;;;5021490;28;19979;-26
2022/08/10 02:00:57;;;;;;;;;;;;;;;;;;5021728;28;19918;-26
2022/08/10 02:03:23;;;;;;;;;;;;;;;;;;5021372;28;19924;-26
2022/08/10 02:05:49;;;;;;;;;;;;;;;;;;5021656;28;19910;-26
2022/08/10 02:08:15;;;;;;;;;;;;;;;;;;5021175;28;19922;-26
2022/08/10 02:10:42;;;;;;;;;;;;;;;;;;5021879;28;19913;-26
2022/08/10 02:13:08;;;;;;;;;;;;;;;;;;5021131;28;19949;-26
2022/08/10 02:15:34;;;;;;;;;;;;;;;;;;5021561;28;19917;-26
2022/08/10 02:18:00;;;;;;;;;;;;;;;;;;5021567;28;19913;-27
2022/08/10 02:20:26;;;;;;;;;;;;;;;;;;5020689;28;20364;-26
2022/08/10 02:22:52;;;;;;;;;;;;;;;;;;5017158;28;19914;-27
2022/08/10 02:25:18;;;;;;;;;;;;;;;;;;5018662;28;19953;-27
2022/08/10 02:27:44;;;;;;;;;;;;;;;;;;5017157;28;19967;-26
2022/08/10 02:30:10;;;;;;;;;;;;;;;;;;5018031;28;19933;-26
2022/08/10 02:32:36;;;;;;;;;;;;;;;;;;5017885;28;20010;-26
2022/08/10 02:35:02;;;;;;;;;;;;;;;;;;5017924;28;20008;-26
2022/08/10 02:37:28;;;;;;;;;;;;;;;;;;5018488;28;19925;-26
2022/08/10 02:39:54;;;;;;;;;;;;;;;;;;5018078;28;19913;-26
2022/08/10 02:42:20;;;;;;;;;;;;;;;;;;5018045;28;19917;-26
2022/08/10 02:44:46;;;;;;;;;;;;;;;;;;5018257;28;20400;-26
2022/08/10 02:47:12;;;;;;;;;;;;;;;;;;5018324;28;19909;-26
2022/08/10 02:49:38;;;;;;;;;;;;;;;;;;5017760;28;20344;-26
2022/08/10 02:52:04;;;;;;;;;;;;;;;;;;5017586;28;19923;-26
2022/08/10 02:54:30;;;;;;;;;;;;;;;;;;5018153;28;20011;-26
2022/08/10 02:56:56;;;;;;;;;;;;;;;;;;5018168;28;20004;-26
2022/08/10 02:59:22;;;;;;;;;;;;;;;;;;5018345;28;19921;-26
2022/08/10 03:01:48;;;;;;;;;;;;;;;;;;5016466;28;20244;-26
2022/08/10 03:04:14;;;;;;;;;;;;;;;;;;5017307;28;19929;-26
2022/08/10 03:06:40;;;;;;;;;;;;;;;;;;5017365;28;19914;-26
2022/08/10 03:09:06;;;;;;;;;;;;;;;;;;5017102;28;19932;-26
2022/08/10 03:11:33;;;;;;;;;;;;;;;;;;5017287;28;19910;-26
2022/08/10 03:13:59;;;;;;;;;;;;;;;;;;5017097;28;19913;-26
2022/08/10 03:16:25;;;;;;;;;;;;;;;;;;5017741;28;19967;-26
2022/08/10 03:18:51;;;;;;;;;;;;;;;;;;5017119;28;19914;-26
2022/08/10 03:21:17;;;;;;;;;;;;;;;;;;5017112;28;19936;-26
2022/08/10 03:23:43;;;;;;;;;;;;;;;;;;5016899;28;19953;-26
2022/08/10 03:26:09;;;;;;;;;;;;;;;;;;5017036;28;19918;-26
2022/08/10 03:28:34;;;;;;;;;;;;;;;;;;5017199;28;20416;-27
2022/08/10 03:31:00;;;;;;;;;;;;;;;;;;5017169;28;19909;-26
2022/08/10 03:33:26;;;;;;;;;;;;;;;;;;5016439;28;20025;-26
2022/08/10 03:35:52;;;;;;;;;;;;;;;;;;5016765;28;20067;-26
2022/08/10 03:38:18;;;;;;;;;;;;;;;;;;5016771;28;19948;-26
2022/08/10 03:40:44;;;;;;;;;;;;;;;;;;5016712;28;20411;-26
2022/08/10 03:43:10;;;;;;;;;;;;;;;;;;5016542;28;19957;-26
2022/08/10 03:45:36;;;;;;;;;;;;;;;;;;5016644;28;19914;-26
2022/08/10 03:48:02;;;;;;;;;;;;;;;;;;5017088;28;19913;-26
2022/08/10 03:50:28;;;;;;;;;;;;;;;;;;5016811;28;20022;-26
2022/08/10 03:52:54;;;;;;;;;;;;;;;;;;5016433;28;19913;-26
2022/08/10 03:55:20;;;;;;;;;;;;;;;;;;5016311;28;20331;-26
2022/08/10 03:57:47;;;;;;;;;;;;;;;;;;5016321;28;19941;-26
2022/08/10 04:00:17;;;;;;;;;;;;;;;;;;5016271;28;19920;-26
2022/08/10 04:02:43;;;;;;;;;;;;;;;;;;5016107;28;19909;-26
2022/08/10 04:05:09;;;;;;;;;;;;;;;;;;5016774;28;19913;-27
2022/08/10 04:07:35;;;;;;;;;;;;;;;;;;5016230;28;19921;-26
2022/08/10 04:10:01;;;;;;;;;;;;;;;;;;5015909;28;19918;-27
2022/08/10 04:12:27;;;;;;;;;;;;;;;;;;5016168;28;19952;-27
2022/08/10 04:14:53;;;;;;;;;;;;;;;;;;5016503;28;19910;-27
2022/08/10 04:17:19;;;;;;;;;;;;;;;;;;5016187;28;19932;-26
2022/08/10 04:19:45;;;;;;;;;;;;;;;;;;5015961;28;20365;-27
2022/08/10 04:22:11;;;;;;;;;;;;;;;;;;5015744;28;19924;-27
2022/08/10 04:24:37;;;;;;;;;;;;;;;;;;5015619;28;19925;-27
2022/08/10 04:27:03;;;;;;;;;;;;;;;;;;5015774;28;19909;-27
2022/08/10 04:29:29;;;;;;;;;;;;;;;;;;5015710;28;19919;-27
2022/08/10 04:31:55;;;;;;;;;;;;;;;;;;5015925;28;19917;-27
2022/08/10 04:34:21;;;;;;;;;;;;;;;;;;5015433;28;19918;-27
2022/08/10 04:36:47;;;;;;;;;;;;;;;;;;5016055;28;20325;-27
2022/08/10 04:39:13;;;;;;;;;;;;;;;;;;5015488;28;19999;-27
2022/08/10 04:41:39;;;;;;;;;;;;;;;;;;5015399;28;19932;-27
2022/08/10 04:44:05;;;;;;;;;;;;;;;;;;5014618;28;19918;-27
2022/08/10 04:46:31;;;;;;;;;;;;;;;;;;5015309;28;19956;-27
2022/08/10 04:48:57;;;;;;;;;;;;;;;;;;5015856;28;19913;-27
2022/08/10 04:51:23;;;;;;;;;;;;;;;;;;5015432;28;19924;-27
2022/08/10 04:53:49;;;;;;;;;;;;;;;;;;5015321;28;19914;-27
2022/08/10 04:56:15;;;;;;;;;;;;;;;;;;5015384;28;19909;-28
2022/08/10 04:58:41;;;;;;;;;;;;;;;;;;5015806;28;19917;-28
2022/08/10 05:01:07;;;;;;;;;;;;;;;;;;5015227;28;20344;-27
2022/08/10 05:03:37;;;;;;;;;;;;;;;;;;5015020;28;19928;-27
2022/08/10 05:06:03;;;;;;;;;;;;;;;;;;5015203;28;20337;-27
2022/08/10 05:08:29;;;;;;;;;;;;;;;;;;5014971;28;19933;-27
2022/08/10 05:10:55;;;;;;;;;;;;;;;;;;5015416;28;20240;-27
2022/08/10 05:13:24;;;;;;;;;;;;;;;;;;5015318;28;20307;-27
2022/08/10 05:15:50;;;;;;;;;;;;;;;;;;5015401;28;19918;-26
2022/08/10 05:18:16;;;;;;;;;;;;;;;;;;5015453;28;20016;-27
2022/08/10 05:20:42;;;;;;;;;;;;;;;;;;5015366;28;20365;-27
2022/08/10 05:23:08;;;;;;;;;;;;;;;;;;5015522;28;20366;-27
2022/08/10 05:25:34;;;;;;;;;;;;;;;;;;5015096;28;19944;-27
2022/08/10 05:28:00;;;;;;;;;;;;;;;;;;5015103;28;19928;-27
2022/08/10 05:30:26;;;;;;;;;;;;;;;;;;5015006;28;19917;-27
2022/08/10 05:32:52;;;;;;;;;;;;;;;;;;5014869;28;19913;-26
2022/08/10 05:35:18;;;;;;;;;;;;;;;;;;5014894;28;20017;-26
2022/08/10 05:37:44;;;;;;;;;;;;;;;;;;5014946;28;19913;-26
2022/08/10 05:40:10;;;;;;;;;;;;;;;;;;5014978;28;19957;-27
2022/08/10 05:42:36;;;;;;;;;;;;;;;;;;5014797;28;19926;-27
2022/08/10 05:45:02;;;;;;;;;;;;;;;;;;5014930;28;19909;-27
2022/08/10 05:47:28;;;;;;;;;;;;;;;;;;5014965;28;19951;-27
2022/08/10 05:49:54;;;;;;;;;;;;;;;;;;5014814;28;19913;-26
2022/08/10 05:52:20;;;;;;;;;;;;;;;;;;5014995;28;19913;-27
2022/08/10 05:54:46;;;;;;;;;;;;;;;;;;5015296;28;19938;-27
2022/08/10 05:57:13;;;;;;;;;;;;;;;;;;5018290;28;19913;-27
2022/08/10 05:59:39;;;;;;;;;;;;;;;;;;5018395;28;19914;-27
2022/08/10 06:02:05;;;;;;;;;;;;;;;;;;5018211;28;19910;-27
2022/08/10 06:04:31;;;;;;;;;;;;;;;;;;5018299;28;19925;-27
2022/08/10 06:06:57;;;;;;;;;;;;;;;;;;5018798;28;19909;-26
2022/08/10 06:09:23;;;;;;;;;;;;;;;;;;5018102;28;20301;-26
2022/08/10 06:11:50;;;;;;;;;;;;;;;;;;5018069;28;19909;-26
2022/08/10 06:17:01;;;;;;;;;;;;;;;;;;5018058;28;19921;-27
2022/08/10 06:19:27;;;;;;;;;;;;;;;;;;5017937;28;19971;-27
2022/08/10 06:21:53;;;;;;;;;;;;;;;;;;5017882;28;19910;-27
2022/08/10 06:24:22;;;;;;;;;;;;;;;;;;5017843;28;20353;-27
2022/08/10 06:26:48;;;;;;;;;;;;;;;;;;5018424;28;20000;-27
2022/08/10 06:29:14;;;;;;;;;;;;;;;;;;5017839;28;19959;-27
2022/08/10 06:31:40;;;;;;;;;;;;;;;;;;5018425;28;20005;-28
2022/08/10 06:34:06;;;;;;;;;;;;;;;;;;5017751;28;20371;-28
2022/08/10 06:36:32;;;;;;;;;;;;;;;;;;5018033;28;19921;-28
2022/08/10 06:38:58;;;;;;;;;;;;;;;;;;5017740;28;20380;-28
2022/08/10 06:41:24;;;;;;;;;;;;;;;;;;5017699;28;20221;-28
2022/08/10 06:43:50;;;;;;;;;;;;;;;;;;5017477;28;19922;-28
2022/08/10 06:46:16;;;;;;;;;;;;;;;;;;5017596;28;19921;-26
2022/08/10 06:48:42;;;;;;;;;;;;;;;;;;5017377;28;20265;-27
2022/08/10 06:51:08;;;;;;;;;;;;;;;;;;5017454;28;19909;-26
2022/08/10 06:53:34;;;;;;;;;;;;;;;;;;5017371;28;19913;-26
2022/08/10 06:55:59;;;;;;;;;;;;;;;;;;5017625;28;19948;-26
2022/08/10 06:58:25;;;;;;;;;;;;;;;;;;5017934;28;20375;-26
2022/08/10 07:00:51;;;;;;;;;;;;;;;;;;5017396;28;20311;-26
2022/08/10 07:03:17;;;;;;;;;;;;;;;;;;5017135;28;19918;-27
2022/08/10 07:05:46;;;;;;;;;;;;;;;;;;5017437;28;20276;-26
2022/08/10 07:08:12;;;;;;;;;;;;;;;;;;5016386;28;20012;-26
2022/08/10 07:10:38;;;;;;;;;;;;;;;;;;5017684;28;19925;-26
2022/08/10 07:13:05;;;;;;;;;;;;;;;;;;5017104;28;19914;-27
2022/08/10 07:15:31;;;;;;;;;;;;;;;;;;5016867;28;19964;-27
2022/08/10 07:17:57;;;;;;;;;;;;;;;;;;5016909;28;19972;-27
2022/08/10 07:20:23;;;;;;;;;;;;;;;;;;5016862;28;20391;-27
2022/08/10 07:22:49;;;;;;;;;;;;;;;;;;5016753;28;20292;-27
2022/08/10 07:25:15;;;;;;;;;;;;;;;;;;5016839;28;19913;-27
2022/08/10 07:27:41;;;;;;;;;;;;;;;;;;5017430;28;20000;-27
2022/08/10 07:30:07;;;;;;;;;;;;;;;;;;5016751;28;19913;-27
2022/08/10 07:32:33;;;;;;;;;;;;;;;;;;5017197;28;19941;-27
2022/08/10 07:34:59;;;;;;;;;;;;;;;;;;5017232;28;19913;-27
2022/08/10 07:37:25;;;;;;;;;;;;;;;;;;5016691;28;20333;-27
2022/08/10 07:39:51;;;;;;;;;;;;;;;;;;5017136;28;19921;-27
2022/08/10 07:42:17;;;;;;;;;;;;;;;;;;5016469;28;19922;-27
2022/08/10 07:44:43;;;;;;;;;;;;;;;;;;5016829;28;20016;-27
2022/08/10 07:47:09;;;;;;;;;;;;;;;;;;5015463;28;19917;-27
2022/08/10 07:49:35;;;;;;;;;;;;;;;;;;5017051;28;19920;-28
2022/08/10 07:52:01;;;;;;;;;;;;;;;;;;5016608;28;19913;-27
2022/08/10 07:54:27;;;;;;;;;;;;;;;;;;5015225;28;19920;-27
2022/08/10 07:56:53;;;;;;;;;;;;;;;;;;5016029;28;20280;-27
2022/08/10 07:59:19;;;;;;;;;;;;;;;;;;5016152;28;19944;-27
2022/08/10 08:01:46;;;;;;;;;;;;;;;;;;5016287;28;20308;-27
2022/08/10 08:04:12;;;;;;;;;;;;;;;;;;5015985;28;19987;-27
2022/08/10 08:06:38;;;;;;;;;;;;;;;;;;5015971;28;19913;-27
2022/08/10 08:09:04;;;;;;;;;;;;;;;;;;5015825;28;19928;-27
2022/08/10 08:11:30;;;;;;;;;;;;;;;;;;5016843;28;19918;-27
2022/08/10 08:13:56;;;;;;;;;;;;;;;;;;5015835;28;19949;-27
2022/08/10 08:16:22;;;;;;;;;;;;;;;;;;5016127;28;19920;-27
2022/08/10 08:18:48;;;;;;;;;;;;;;;;;;5015482;28;19968;-27
2022/08/10 08:21:14;;;;;;;;;;;;;;;;;;5016751;28;19947;-27
2022/08/10 08:23:40;;;;;;;;;;;;;;;;;;5015763;28;20039;-28
2022/08/10 08:26:06;;;;;;;;;;;;;;;;;;5016096;28;19917;-27
2022/08/10 08:28:32;;;;;;;;;;;;;;;;;;5015923;28;20248;-27
2022/08/10 08:30:58;;;;;;;;;;;;;;;;;;5015914;28;19917;-27
2022/08/10 08:33:24;;;;;;;;;;;;;;;;;;5014740;28;19914;-27
2022/08/10 08:35:50;;;;;;;;;;;;;;;;;;5016209;28;19941;-27
2022/08/10 08:38:17;;;;;;;;;;;;;;;;;;5015517;28;19944;-27
2022/08/10 08:40:43;;;;;;;;;;;;;;;;;;5015372;28;19914;-27
2022/08/10 08:43:09;;;;;;;;;;;;;;;;;;5015309;28;19956;-27
2022/08/10 08:45:35;;;;;;;;;;;;;;;;;;5015440;28;19910;-27
2022/08/10 08:48:01;;;;;;;;;;;;;;;;;;5015989;28;19952;-27
2022/08/10 08:50:27;;;;;;;;;;;;;;;;;;5015722;28;20317;-27
2022/08/10 08:52:53;;;;;;;;;;;;;;;;;;5015879;28;19913;-27
2022/08/10 08:55:19;;;;;;;;;;;;;;;;;;5015375;28;20068;-27
2022/08/10 08:57:45;;;;;;;;;;;;;;;;;;5015535;28;19929;-27
2022/08/10 09:00:12;;;;;;;;;;;;;;;;;;5015795;28;19913;-27
2022/08/10 09:02:38;;;;;;;;;;;;;;;;;;5015163;28;20343;-27
2022/08/10 09:05:04;;;;;;;;;;;;;;;;;;5015187;28;19917;-27
2022/08/10 09:07:30;;;;;;;;;;;;;;;;;;5014976;28;19913;-27
2022/08/10 09:09:56;;;;;;;;;;;;;;;;;;5015512;28;19924;-27
2022/08/10 09:12:22;;;;;;;;;;;;;;;;;;5015362;28;19921;-27
2022/08/10 09:14:48;;;;;;;;;;;;;;;;;;5015354;28;20332;-27
2022/08/10 09:17:15;;;;;;;;;;;;;;;;;;5015474;28;20280;-27
2022/08/10 09:19:41;;;;;;;;;;;;;;;;;;5015045;28;19913;-27
2022/08/10 09:22:07;;;;;;;;;;;;;;;;;;5015540;28;20007;-27
2022/08/10 09:24:33;;;;;;;;;;;;;;;;;;5014992;28;20264;-27
2022/08/10 09:26:59;;;;;;;;;;;;;;;;;;5014941;28;19921;-27
2022/08/10 09:29:25;;;;;;;;;;;;;;;;;;5014951;28;19914;-27
2022/08/10 09:31:51;;;;;;;;;;;;;;;;;;5018365;28;19910;-27
2022/08/10 09:34:17;;;;;;;;;;;;;;;;;;5018887;28;20432;-27
2022/08/10 09:36:43;;;;;;;;;;;;;;;;;;5018799;28;19917;-27
2022/08/10 09:39:09;;;;;;;;;;;;;;;;;;5019369;28;19920;-27
2022/08/10 09:41:35;;;;;;;;;;;;;;;;;;5018666;28;19913;-27
2022/08/10 09:44:01;;;;;;;;;;;;;;;;;;5018522;28;19914;-27
2022/08/10 09:46:27;;;;;;;;;;;;;;;;;;5018616;28;19963;-28
2022/08/10 09:48:53;;;;;;;;;;;;;;;;;;5019717;28;19921;-27
2022/08/10 09:51:19;;;;;;;;;;;;;;;;;;5018682;28;20012;-27
2022/08/10 09:53:45;;;;;;;;;;;;;;;;;;5018490;28;19951;-27
2022/08/10 09:56:11;;;;;;;;;;;;;;;;;;5018525;28;19963;-27
2022/08/10 09:58:37;;;;;;;;;;;;;;;;;;5018495;28;19913;-26
2022/08/10 10:01:03;;;;;;;;;;;;;;;;;;5018553;28;19957;-27
2022/08/10 10:03:29;;;;;;;;;;;;;;;;;;5018572;28;19914;-27
2022/08/10 10:05:55;;;;;;;;;;;;;;;;;;5018663;28;20242;-27
2022/08/10 10:08:21;;;;;;;;;;;;;;;;;;5018163;28;19922;-27
2022/08/10 10:10:47;;;;;;;;;;;;;;;;;;5018493;28;20237;-27
2022/08/10 10:13:13;;;;;;;;;;;;;;;;;;5018311;28;19910;-27
2022/08/10 10:15:39;;;;;;;;;;;;;;;;;;5017217;28;19914;-27
2022/08/10 10:18:05;;;;;;;;;;;;;;;;;;5018043;28;19975;-27
2022/08/10 10:20:32;;;;;;;;;;;;;;;;;;5018003;28;20221;-28
2022/08/10 10:22:58;;;;;;;;;;;;;;;;;;5017773;28;19963;-27
2022/08/10 10:25:25;;;;;;;;;;;;;;;;;;5017860;28;19925;-27
2022/08/10 10:27:51;;;;;;;;;;;;;;;;;;5017743;28;19913;-27
2022/08/10 10:30:17;;;;;;;;;;;;;;;;;;5017732;28;19924;-27
2022/08/10 10:32:43;;;;;;;;;;;;;;;;;;5017703;28;19917;-27
2022/08/10 10:35:09;;;;;;;;;;;;;;;;;;5017781;28;20260;-26
2022/08/10 10:37:35;;;;;;;;;;;;;;;;;;5017641;28;19909;-27
2022/08/10 10:40:01;;;;;;;;;;;;;;;;;;5017966;28;20265;-27
2022/08/10 10:42:29;;;;;;;;;;;;;;;;;;5016642;28;19927;-28
2022/08/10 10:44:54;;;;;;;;;;;;;;;;;;5017512;28;19917;-27
2022/08/10 10:47:20;;;;;;;;;;;;;;;;;;5017579;28;19910;-27
2022/08/10 10:49:46;;;;;;;;;;;;;;;;;;5017462;28;19946;-27
2022/08/10 10:52:12;;;;;;;;;;;;;;;;;;5017651;28;19909;-27
2022/08/10 10:54:39;;;;;;;;;;;;;;;;;;5017661;28;20063;-28
2022/08/10 10:57:05;;;;;;;;;;;;;;;;;;5017601;28;19909;-27
2022/08/10 10:59:31;;;;;;;;;;;;;;;;;;5017515;28;20264;-28
2022/08/10 11:01:57;;;;;;;;;;;;;;;;;;5017171;28;19909;-27
2022/08/10 11:04:24;;;;;;;;;;;;;;;;;;5017218;28;20359;-27
2022/08/10 11:06:50;;;;;;;;;;;;;;;;;;5017645;28;19924;-27
2022/08/10 11:09:16;;;;;;;;;;;;;;;;;;5017100;28;19921;-27
2022/08/10 11:11:42;;;;;;;;;;;;;;;;;;5017186;28;19931;-26
2022/08/10 11:14:07;;;;;;;;;;;;;;;;;;5017049;28;19918;-27
2022/08/10 11:16:33;;;;;;;;;;;;;;;;;;5017011;28;19945;-27
2022/08/10 11:18:59;;;;;;;;;;;;;;;;;;5015940;28;20368;-27
2022/08/10 11:21:25;;;;;;;;;;;;;;;;;;5017239;28;19913;-27
2022/08/10 11:23:51;;;;;;;;;;;;;;;;;;5016642;28;19965;-27
2022/08/10 11:26:17;;;;;;;;;;;;;;;;;;5016806;28;20360;-27
2022/08/10 11:28:43;;;;;;;;;;;;;;;;;;5016763;28;20258;-27
2022/08/10 11:31:09;;;;;;;;;;;;;;;;;;5016620;28;20008;-26
2022/08/10 11:33:35;;;;;;;;;;;;;;;;;;5016560;28;19914;-27
2022/08/10 11:36:01;;;;;;;;;;;;;;;;;;5016870;28;19920;-27
2022/08/10 11:38:27;;;;;;;;;;;;;;;;;;5016832;28;19936;-27
2022/08/10 11:40:53;;;;;;;;;;;;;;;;;;5016736;28;19925;-27
2022/08/10 11:43:21;;;;;;;;;;;;;;;;;;5015439;28;20323;-27
2022/08/10 11:45:47;;;;;;;;;;;;;;;;;;5016458;28;20381;-27
2022/08/10 11:48:13;;;;;;;;;;;;;;;;;;5016988;28;19972;-27
2022/08/10 11:50:39;;;;;;;;;;;;;;;;;;5016943;28;20283;-26
2022/08/10 11:53:05;;;;;;;;;;;;;;;;;;5016111;28;19913;-26
2022/08/10 11:55:31;;;;;;;;;;;;;;;;;;5016260;28;19922;-27
2022/08/10 11:57:57;;;;;;;;;;;;;;;;;;5016562;28;20228;-27
2022/08/10 12:00:23;;;;;;;;;;;;;;;;;;5016120;28;19914;-27
2022/08/10 12:02:49;;;;;;;;;;;;;;;;;;5015947;28;19910;-26
2022/08/10 12:05:15;;;;;;;;;;;;;;;;;;5015963;28;19914;-27
2022/08/10 12:07:41;;;;;;;;;;;;;;;;;;5016257;28;19913;-27
2022/08/10 12:10:07;;;;;;;;;;;;;;;;;;5016408;28;19991;-27
2022/08/10 12:12:33;;;;;;;;;;;;;;;;;;5014967;28;19914;-27
2022/08/10 12:14:59;;;;;;;;;;;;;;;;;;5015987;28;20009;-27
2022/08/10 12:17:25;;;;;;;;;;;;;;;;;;5015870;28;19918;-27
2022/08/10 12:19:51;;;;;;;;;;;;;;;;;;5016389;28;19968;-27
2022/08/10 12:22:17;;;;;;;;;;;;;;;;;;5015809;28;20347;-27
2022/08/10 12:24:43;;;;;;;;;;;;;;;;;;5016024;28;19929;-27
2022/08/10 12:27:09;;;;;;;;;;;;;;;;;;5016343;28;20245;-27
2022/08/10 12:29:35;;;;;;;;;;;;;;;;;;5015838;28;19970;-27
2022/08/10 12:32:03;;;;;;;;;;;;;;;;;;5015694;28;20361;-27
2022/08/10 12:34:30;;;;;;;;;;;;;;;;;;5016005;28;19917;-27
2022/08/10 12:36:56;;;;;;;;;;;;;;;;;;5015923;28;19952;-27
2022/08/10 12:39:22;;;;;;;;;;;;;;;;;;5015551;28;19924;-27
2022/08/10 12:41:48;;;;;;;;;;;;;;;;;;5015376;28;19909;-27
2022/08/10 12:44:14;;;;;;;;;;;;;;;;;;5015469;28;19922;-27
2022/08/10 12:46:40;;;;;;;;;;;;;;;;;;5016068;28;19909;-27
2022/08/10 12:49:06;;;;;;;;;;;;;;;;;;5015706;28;19914;-27
2022/08/10 12:51:34;;;;;;;;;;;;;;;;;;5015448;28;19920;-27
2022/08/10 12:54:00;;;;;;;;;;;;;;;;;;5015576;28;20260;-27
2022/08/10 12:56:26;;;;;;;;;;;;;;;;;;5015929;28;19914;-27
2022/08/10 12:58:52;;;;;;;;;;;;;;;;;;5015355;28;19913;-27
2022/08/10 13:01:18;;;;;;;;;;;;;;;;;;5015429;28;19918;-28
2022/08/10 13:03:44;;;;;;;;;;;;;;;;;;5015318;28;19925;-27
2022/08/10 13:06:10;;;;;;;;;;;;;;;;;;5014858;28;20241;-27
2022/08/10 13:11:20;;;;;;;;;;;;;;;;;;5015231;28;20004;-27
2022/08/10 13:13:47;;;;;;;;;;;;;;;;;;5015472;28;20360;-27
2022/08/10 13:16:15;;;;;;;;;;;;;;;;;;5014736;28;20210;-27
2022/08/10 13:18:41;;;;;;;;;;;;;;;;;;5015974;28;19913;-27
2022/08/10 13:21:08;;;;;;;;;;;;;;;;;;5015436;28;19910;-27
2022/08/10 13:23:34;;;;;;;;;;;;;;;;;;5014996;28;19971;-27
2022/08/10 13:26:00;;;;;;;;;;;;;;;;;;5015152;28;20312;-27
2022/08/10 13:28:25;;;;;;;;;;;;;;;;;;5015410;28;19929;-27
2022/08/10 13:30:52;;;;;;;;;;;;;;;;;;5015046;28;20008;-27
2022/08/10 13:33:17;;;;;;;;;;;;;;;;;;5015053;28;19913;-27
2022/08/10 13:35:43;;;;;;;;;;;;;;;;;;5015137;28;20371;-27
2022/08/10 13:38:09;;;;;;;;;;;;;;;;;;5015078;28;19913;-27
2022/08/10 13:40:35;;;;;;;;;;;;;;;;;;5014905;28;20252;-27
2022/08/10 13:43:03;;;;;;;;;;;;;;;;;;5014772;28;19913;-27
2022/08/10 13:45:29;;;;;;;;;;;;;;;;;;5015153;28;19913;-27
2022/08/10 13:47:55;;;;;;;;;;;;;;;;;;5015170;28;20304;-27
2022/08/10 13:50:21;;;;;;;;;;;;;;;;;;5015108;28;19917;-27
2022/08/10 13:52:47;;;;;;;;;;;;;;;;;;5014994;28;19913;-27
2022/08/10 13:55:13;;;;;;;;;;;;;;;;;;5014672;28;19971;-27
2022/08/10 13:57:39;;;;;;;;;;;;;;;;;;5014731;28;19914;-27
2022/08/10 14:00:06;;;;;;;;;;;;;;;;;;5014727;28;19909;-28
2022/08/10 14:02:33;;;;;;;;;;;;;;;;;;5014533;28;19924;-27
2022/08/10 14:04:59;;;;;;;;;;;;;;;;;;5014531;28;19913;-27
2022/08/10 14:07:25;;;;;;;;;;;;;;;;;;5014766;28;20248;-28
2022/08/10 14:09:51;;;;;;;;;;;;;;;;;;5014661;28;20336;-27
2022/08/10 14:12:17;;;;;;;;;;;;;;;;;;5014706;28;20000;-27
2022/08/10 14:14:43;;;;;;;;;;;;;;;;;;5014648;28;19914;-27
2022/08/10 14:17:09;;;;;;;;;;;;;;;;;;5015229;28;19913;-27
2022/08/10 14:19:35;;;;;;;;;;;;;;;;;;5018113;28;20344;-28
2022/08/10 14:22:01;;;;;;;;;;;;;;;;;;5017991;28;19952;-27
2022/08/10 14:24:27;;;;;;;;;;;;;;;;;;5018535;28;19924;-27
2022/08/10 14:26:53;;;;;;;;;;;;;;;;;;5017138;28;19972;-27
2022/08/10 14:29:19;;;;;;;;;;;;;;;;;;5018460;28;19913;-27
2022/08/10 14:31:47;;;;;;;;;;;;;;;;;;5017948;28;19910;-27
2022/08/10 14:34:13;;;;;;;;;;;;;;;;;;5017843;28;19914;-27
2022/08/10 14:36:41;;;;;;;;;;;;;;;;;;5017896;28;19925;-27
2022/08/10 14:39:06;;;;;;;;;;;;;;;;;;5018051;28;19945;-27
2022/08/10 14:41:32;;;;;;;;;;;;;;;;;;5017739;28;19917;-27
2022/08/10 14:43:58;;;;;;;;;;;;;;;;;;5017499;28;19924;-27
2022/08/10 14:46:24;;;;;;;;;;;;;;;;;;5017651;28;19909;-27
2022/08/10 14:48:50;;;;;;;;;;;;;;;;;;5017582;28;19929;-27
2022/08/10 14:51:16;;;;;;;;;;;;;;;;;;5017646;28;20233;-27
2022/08/10 14:53:42;;;;;;;;;;;;;;;;;;5017585;28;19925;-27
2022/08/10 14:56:08;;;;;;;;;;;;;;;;;;5018068;28;19938;-27
2022/08/10 14:58:34;;;;;;;;;;;;;;;;;;5017749;28;19981;-27
2022/08/10 15:01:00;;;;;;;;;;;;;;;;;;5017409;28;19917;-27
2022/08/10 15:03:26;;;;;;;;;;;;;;;;;;5017241;28;19925;-27
2022/08/10 15:05:52;;;;;;;;;;;;;;;;;;5017522;28;20021;-27
2022/08/10 15:08:18;;;;;;;;;;;;;;;;;;5017108;28;19929;-27
2022/08/10 15:10:44;;;;;;;;;;;;;;;;;;5017460;28;20352;-27
2022/08/10 15:13:10;;;;;;;;;;;;;;;;;;5017105;28;19940;-27
2022/08/10 15:15:36;;;;;;;;;;;;;;;;;;5017662;28;19913;-27
2022/08/10 15:18:02;;;;;;;;;;;;;;;;;;5017689;28;19910;-27
2022/08/10 15:20:28;;;;;;;;;;;;;;;;;;5017069;28;19973;-27
2022/08/10 15:22:54;;;;;;;;;;;;;;;;;;5017120;28;19917;-27
2022/08/10 15:25:20;;;;;;;;;;;;;;;;;;5017099;28;19949;-27
2022/08/10 15:27:46;;;;;;;;;;;;;;;;;;5016909;28;19914;-28
2022/08/10 15:30:12;;;;;;;;;;;;;;;;;;5016594;28;20285;-27
2022/08/10 15:38:09;;;;;;;;;;;;;;;;;;5016855;28;19920;-27
2022/08/10 15:40:35;;;;;;;;;;;;;;;;;;5016754;28;20311;-27
2022/08/10 15:43:01;;;;;;;;;;;;;;;;;;5016508;28;19995;-27
2022/08/10 15:45:27;;;;;;;;;;;;;;;;;;5016575;28;19909;-27
2022/08/10 15:47:53;;;;;;;;;;;;;;;;;;5016869;28;19913;-27
2022/08/10 15:50:19;;;;;;;;;;;;;;;;;;5017388;28;19967;-27
2022/08/10 15:52:45;;;;;;;;;;;;;;;;;;5016760;28;19913;-27
2022/08/10 15:55:11;;;;;;;;;;;;;;;;;;5016443;28;19920;-27
2022/08/10 15:57:37;;;;;;;;;;;;;;;;;;5016378;28;19917;-27
2022/08/10 16:00:03;;;;;;;;;;;;;;;;;;5016348;28;19920;-27
2022/08/10 16:02:29;;;;;;;;;;;;;;;;;;5016171;28;19913;-27
2022/08/10 16:04:55;;;;;;;;;;;;;;;;;;5016145;28;19924;-27
2022/08/10 16:07:21;;;;;;;;;;;;;;;;;;5016513;28;19913;-27
2022/08/10 16:09:47;;;;;;;;;;;;;;;;;;5016085;28;20312;-27
2022/08/10 16:12:13;;;;;;;;;;;;;;;;;;5016513;28;19914;-27
2022/08/10 16:14:39;;;;;;;;;;;;;;;;;;5016077;28;19909;-27
2022/08/10 16:17:05;;;;;;;;;;;;;;;;;;5016052;28;19913;-27
2022/08/10 16:19:31;;;;;;;;;;;;;;;;;;5015823;28;19990;-27
2022/08/10 16:21:57;;;;;;;;;;;;;;;;;;5016342;28;20284;-27
2022/08/10 16:24:23;;;;;;;;;;;;;;;;;;5015919;28;19921;-27
2022/08/10 16:26:49;;;;;;;;;;;;;;;;;;5015997;28;19922;-26
2022/08/10 16:29:15;;;;;;;;;;;;;;;;;;5015902;28;19920;-27
2022/08/10 16:31:41;;;;;;;;;;;;;;;;;;5015916;28;20260;-27
2022/08/10 16:34:07;;;;;;;;;;;;;;;;;;5016044;28;19914;-27
2022/08/10 16:36:33;;;;;;;;;;;;;;;;;;5015804;28;19913;-27
2022/08/10 16:38:59;;;;;;;;;;;;;;;;;;5016005;28;19909;-27
2022/08/10 16:41:25;;;;;;;;;;;;;;;;;;5014776;28;19918;-27
2022/08/10 16:43:51;;;;;;;;;;;;;;;;;;5015588;28;20288;-27
2022/08/10 16:46:17;;;;;;;;;;;;;;;;;;5015682;28;20017;-27
2022/08/10 16:48:43;;;;;;;;;;;;;;;;;;5015563;28;20268;-26